Weather at Sandy Point Airport

Public forecast

Using degrees Celsius for public forecast. Weather courtesy of forecast.io.

Closest aviation weather report (METAR) to Sandy Point Airport

Closest report is Lynden Pindling International Airport, 58.1 nm (107.6 km) S. Retrieved 2020/09/18 13:00 UTC (53 minutes ago):

MYNN 181300Z 21009KT 9999 -SHRA SCT020 SCT200 28/24 A2995

Closest aviation forecast (TAF) to Sandy Point Airport

Closest forecast is Lynden Pindling International Airport, 58.1 nm (107.6 km) S. Retrieved 2020/09/18 12:52 UTC (1 hour ago):

TAF MYNN 181030Z 1812/1912 16004KT 9999 FEW025 BKN250